createdAt,value
2018-07-20T00:02:27.368Z,99.60
2018-07-20T00:04:56.603Z,99.40
2018-07-20T00:07:25.923Z,99.50
2018-07-20T00:09:55.154Z,99.50
2018-07-20T00:12:24.260Z,99.50
2018-07-20T00:14:53.512Z,99.50
2018-07-20T00:17:22.728Z,99.70
2018-07-20T00:19:51.908Z,99.90
2018-07-20T00:22:21.302Z,99.90
2018-07-20T00:24:50.363Z,99.90
2018-07-20T00:27:19.616Z,99.90
2018-07-20T00:29:48.807Z,99.90
2018-07-20T00:34:46.747Z,99.90
2018-07-20T00:37:16.740Z,99.90
2018-07-20T00:39:45.905Z,99.90
2018-07-20T00:42:15.078Z,99.90
2018-07-20T00:44:44.202Z,99.90
2018-07-20T00:47:13.456Z,99.90
2018-07-20T00:49:42.677Z,99.90
2018-07-20T00:52:11.869Z,99.90
2018-07-20T00:54:41.171Z,99.90
2018-07-20T00:57:10.300Z,99.90
2018-07-20T00:59:39.561Z,99.90
2018-07-20T01:02:08.714Z,99.90
2018-07-20T01:04:38.102Z,99.90
2018-07-20T01:07:07.288Z,99.90
2018-07-20T01:12:05.380Z,99.90
2018-07-20T01:14:34.908Z,99.90
2018-07-20T01:17:04.147Z,99.90
2018-07-20T01:22:02.407Z,99.90
2018-07-20T01:24:31.544Z,99.90
2018-07-20T01:27:00.677Z,99.90
2018-07-20T01:29:29.879Z,99.90
2018-07-20T01:31:59.065Z,99.90
2018-07-20T01:34:28.203Z,99.90
2018-07-20T01:36:57.551Z,99.90
2018-07-20T01:39:26.715Z,99.90
2018-07-20T01:41:55.923Z,99.90
2018-07-20T01:44:25.226Z,99.90
2018-07-20T01:46:54.344Z,99.90
2018-07-20T01:49:23.556Z,99.90
2018-07-20T01:51:52.830Z,99.90
2018-07-20T01:54:22.040Z,99.90
2018-07-20T01:56:51.356Z,99.90
2018-07-20T01:59:20.503Z,99.90
2018-07-20T02:01:49.638Z,99.90
2018-07-20T02:04:19.035Z,99.90
2018-07-20T02:06:48.124Z,99.90
2018-07-20T02:09:17.450Z,99.90
2018-07-20T02:11:46.645Z,99.90
2018-07-20T02:14:15.867Z,99.90
2018-07-20T02:16:45.077Z,99.90
2018-07-20T02:19:14.316Z,99.90
2018-07-20T02:21:43.520Z,99.90
2018-07-20T02:24:12.820Z,99.90
2018-07-20T02:26:41.962Z,99.90
2018-07-20T02:29:11.696Z,99.90
2018-07-20T02:31:42.563Z,99.90
2018-07-20T02:34:11.742Z,99.90
2018-07-20T02:36:40.932Z,99.90
2018-07-20T02:39:12.558Z,99.90
2018-07-20T02:41:42.573Z,99.90
2018-07-20T02:44:12.276Z,99.90
2018-07-20T02:46:41.422Z,99.90
2018-07-20T02:49:10.607Z,99.90
2018-07-20T02:51:39.721Z,99.90
2018-07-20T02:54:09.080Z,99.90
2018-07-20T02:56:38.375Z,99.90
2018-07-20T02:59:08.121Z,99.90
2018-07-20T03:01:37.299Z,99.90
2018-07-20T03:04:06.430Z,99.90
2018-07-20T03:06:36.127Z,99.90
2018-07-20T03:09:08.912Z,99.90
2018-07-20T03:11:38.272Z,99.90
2018-07-20T03:14:07.599Z,99.90
2018-07-20T03:16:36.872Z,99.90
2018-07-20T03:19:06.579Z,99.90
2018-07-20T03:21:35.860Z,99.90
2018-07-20T03:24:04.983Z,99.90
2018-07-20T03:29:03.112Z,99.90
2018-07-20T03:31:32.442Z,99.90
2018-07-20T03:34:01.655Z,99.90
2018-07-20T03:36:30.868Z,99.90
2018-07-20T03:39:00.097Z,99.90
2018-07-20T03:41:29.470Z,99.90
2018-07-20T03:43:58.643Z,99.90
2018-07-20T03:46:27.760Z,99.90
2018-07-20T03:48:57.720Z,99.90
2018-07-20T03:51:26.864Z,99.90
2018-07-20T03:53:56.190Z,99.90
2018-07-20T03:56:25.437Z,99.90
2018-07-20T03:58:54.920Z,99.90
2018-07-20T04:01:24.087Z,99.90
2018-07-20T04:03:53.384Z,99.90
2018-07-20T04:06:22.810Z,99.90
2018-07-20T04:08:51.922Z,99.90
2018-07-20T04:11:21.085Z,99.90
2018-07-20T04:13:50.637Z,99.90
2018-07-20T04:16:19.921Z,99.90
2018-07-20T04:18:49.076Z,99.90
2018-07-20T04:21:18.283Z,99.90
2018-07-20T04:23:47.572Z,99.90
2018-07-20T04:26:16.716Z,99.90
2018-07-20T04:28:45.906Z,99.90
2018-07-20T04:31:15.677Z,99.90
2018-07-20T04:33:44.786Z,99.90
2018-07-20T04:36:13.868Z,99.90
2018-07-20T04:38:43.083Z,99.90
2018-07-20T04:41:12.288Z,99.90
2018-07-20T04:43:41.748Z,99.90
2018-07-20T04:46:11.104Z,99.90
2018-07-20T04:48:40.366Z,99.90
2018-07-20T04:51:09.635Z,99.90
2018-07-20T04:53:39.111Z,99.90
2018-07-20T04:56:08.315Z,99.90
2018-07-20T04:58:37.440Z,99.90
2018-07-20T05:01:06.811Z,99.90
2018-07-20T05:03:36.134Z,99.90
2018-07-20T05:06:05.277Z,99.90
2018-07-20T05:08:34.482Z,99.90
2018-07-20T05:11:03.771Z,99.90
2018-07-20T05:13:32.973Z,99.90
2018-07-20T05:16:02.204Z,99.90
2018-07-20T05:18:31.402Z,99.90
2018-07-20T05:21:00.585Z,99.90
2018-07-20T05:23:29.984Z,99.90
2018-07-20T05:25:59.217Z,99.90
2018-07-20T05:28:28.336Z,99.90
2018-07-20T05:30:57.533Z,99.90
2018-07-20T05:33:26.625Z,99.90
2018-07-20T05:35:55.941Z,99.90
2018-07-20T05:38:25.216Z,99.90
2018-07-20T05:40:54.356Z,99.90
2018-07-20T05:43:23.590Z,99.90
2018-07-20T05:48:21.436Z,99.30
2018-07-20T05:50:50.567Z,98.70
2018-07-20T05:53:19.914Z,98.90
2018-07-20T05:55:49.204Z,98.90
2018-07-20T05:58:18.323Z,98.50
2018-07-20T06:00:47.707Z,98.10
2018-07-20T06:03:17.035Z,98.50
2018-07-20T06:05:46.331Z,98.10
2018-07-20T06:08:15.539Z,98.30
2018-07-20T06:10:44.798Z,97.90
2018-07-20T06:13:13.964Z,97.40
2018-07-20T06:15:43.078Z,97.80
2018-07-20T06:18:12.191Z,97.00
2018-07-20T06:20:41.603Z,95.70
2018-07-20T06:23:10.773Z,95.70
2018-07-20T06:25:39.950Z,95.40
2018-07-20T06:28:09.682Z,95.80
2018-07-20T06:30:38.853Z,95.50
2018-07-20T06:33:08.098Z,95.50
2018-07-20T06:35:37.272Z,95.30
2018-07-20T06:38:06.670Z,94.40
2018-07-20T06:40:35.840Z,95.40
2018-07-20T06:43:05.059Z,95.70
2018-07-20T06:45:34.276Z,95.30
2018-07-20T06:50:32.213Z,94.10
2018-07-20T06:53:01.556Z,94.20
2018-07-20T06:55:30.672Z,93.90
2018-07-20T06:57:59.868Z,94.00
2018-07-20T07:00:29.251Z,93.20
2018-07-20T07:02:58.429Z,92.30
2018-07-20T07:05:27.661Z,92.40
2018-07-20T07:07:56.858Z,93.00
2018-07-20T07:10:26.043Z,92.90
2018-07-20T07:15:24.119Z,91.10
2018-07-20T07:17:53.238Z,91.20
2018-07-20T07:20:22.434Z,90.20
2018-07-20T07:22:51.661Z,90.10
2018-07-20T07:25:20.947Z,88.50
2018-07-20T07:27:50.060Z,83.80
2018-07-20T07:30:19.276Z,86.10
2018-07-20T07:32:48.354Z,83.30
2018-07-20T07:35:17.651Z,85.60
2018-07-20T07:37:46.806Z,84.70
2018-07-20T07:40:16.145Z,84.70
2018-07-20T07:42:45.335Z,82.40
2018-07-20T07:45:14.540Z,84.30
2018-07-20T07:50:12.610Z,81.40
2018-07-20T07:52:41.817Z,81.20
2018-07-20T07:55:11.117Z,81.40
2018-07-20T07:57:40.233Z,83.70
2018-07-20T08:00:10.459Z,84.10
2018-07-20T08:02:39.960Z,84.10
2018-07-20T08:05:09.191Z,81.70
2018-07-20T08:07:38.366Z,83.50
2018-07-20T08:10:07.834Z,81.00
2018-07-20T08:12:36.883Z,82.20
2018-07-20T08:15:06.748Z,81.80
2018-07-20T08:17:35.879Z,82.00
2018-07-20T08:20:05.174Z,79.40
2018-07-20T08:22:34.926Z,75.80
2018-07-20T08:25:04.079Z,75.60
2018-07-20T08:27:33.205Z,75.50
2018-07-20T08:30:02.365Z,73.90
2018-07-20T08:32:31.732Z,77.00
2018-07-20T08:35:00.984Z,74.90
2018-07-20T08:37:30.157Z,75.40
2018-07-20T08:39:59.320Z,77.00
2018-07-20T08:42:28.563Z,74.20
2018-07-20T08:44:58.480Z,75.20
2018-07-20T08:47:27.613Z,73.00
2018-07-20T08:49:56.871Z,77.00
2018-07-20T08:52:26.090Z,73.60
2018-07-20T08:54:55.463Z,73.30
2018-07-20T08:57:24.664Z,70.80
2018-07-20T08:59:53.884Z,72.80
2018-07-20T09:02:23.098Z,67.60
2018-07-20T09:04:52.270Z,67.80
2018-07-20T09:07:21.590Z,68.40
2018-07-20T09:09:50.975Z,68.10
2018-07-20T09:12:20.251Z,69.50
2018-07-20T09:14:49.467Z,69.70
2018-07-20T09:17:18.559Z,65.20
2018-07-20T09:19:47.672Z,67.90
2018-07-20T09:22:16.822Z,69.80
2018-07-20T09:24:46.060Z,66.50
2018-07-20T09:27:15.293Z,64.40
2018-07-20T09:29:44.436Z,67.60
2018-07-20T09:32:14.111Z,64.20
2018-07-20T09:34:43.283Z,62.10
2018-07-20T09:37:12.483Z,63.20
2018-07-20T09:39:41.736Z,62.80
2018-07-20T09:42:10.939Z,61.80
2018-07-20T09:44:40.162Z,61.00
2018-07-20T09:47:09.373Z,58.10
2018-07-20T09:49:38.681Z,60.80
2018-07-20T09:52:07.960Z,64.60
2018-07-20T09:54:37.241Z,64.60
2018-07-20T09:57:06.420Z,65.70
2018-07-20T09:59:35.740Z,64.40
2018-07-20T10:02:05.030Z,61.10
2018-07-20T10:04:34.252Z,59.70
2018-07-20T10:09:32.276Z,55.50
2018-07-20T10:12:01.561Z,62.00
2018-07-20T10:14:30.749Z,60.20
2018-07-20T10:19:28.680Z,58.10
2018-07-20T10:21:58.078Z,61.80
2018-07-20T10:24:27.380Z,68.30
2018-07-20T10:26:56.908Z,64.00
2018-07-20T10:29:26.240Z,60.60
2018-07-20T10:31:55.425Z,63.90
2018-07-20T10:34:24.574Z,54.90
2018-07-20T10:36:53.716Z,50.80
2018-07-20T10:39:23.428Z,49.80
2018-07-20T10:41:52.744Z,51.30
2018-07-20T10:44:22.436Z,52.10
2018-07-20T10:46:51.721Z,53.90
2018-07-20T10:49:20.852Z,52.70
2018-07-20T10:51:50.085Z,50.00
2018-07-20T10:54:19.288Z,51.20
2018-07-20T10:56:48.562Z,55.50
2018-07-20T10:59:18.668Z,53.10
2018-07-20T11:01:48.083Z,48.60
2018-07-20T11:04:17.360Z,51.50
2018-07-20T11:06:46.782Z,50.80
2018-07-20T11:09:15.957Z,53.40
2018-07-20T11:11:45.093Z,48.40
2018-07-20T11:14:14.338Z,54.00
2018-07-20T11:16:43.466Z,52.00
2018-07-20T11:19:12.559Z,51.40
2018-07-20T11:21:41.858Z,49.60
2018-07-20T11:24:11.108Z,48.70
2018-07-20T11:26:40.265Z,52.20
2018-07-20T11:29:09.498Z,49.30
2018-07-20T11:31:38.676Z,47.70
2018-07-20T11:34:07.997Z,47.40
2018-07-20T11:36:37.782Z,45.10
2018-07-20T11:39:08.564Z,48.60
2018-07-20T11:41:38.651Z,47.10
2018-07-20T11:44:07.956Z,47.00
2018-07-20T11:46:37.209Z,48.70
2018-07-20T11:49:06.475Z,49.20
2018-07-20T11:51:38.776Z,49.70
2018-07-20T11:54:08.503Z,46.40
2018-07-20T11:56:37.634Z,47.50
2018-07-20T11:59:07.003Z,46.40
2018-07-20T12:01:36.223Z,49.10
2018-07-20T12:04:05.386Z,48.00
2018-07-20T12:06:34.569Z,46.70
2018-07-20T12:09:06.638Z,47.90
2018-07-20T12:11:35.980Z,46.00
2018-07-20T12:14:05.125Z,47.00
2018-07-20T12:16:34.449Z,46.60
2018-07-20T12:19:03.847Z,47.00
2018-07-20T12:21:33.041Z,48.80
2018-07-20T12:24:02.509Z,45.60
2018-07-20T12:26:31.965Z,43.70
2018-07-20T12:29:01.459Z,45.90
2018-07-20T12:31:30.565Z,45.20
2018-07-20T12:36:28.555Z,44.30
2018-07-20T12:38:57.703Z,46.40
2018-07-20T12:41:26.902Z,43.40
2018-07-20T12:43:56.248Z,43.00
2018-07-20T12:46:25.801Z,45.90
2018-07-20T12:48:54.992Z,45.00
2018-07-20T12:51:24.269Z,43.70
2018-07-20T12:53:53.480Z,46.80
2018-07-20T12:56:22.724Z,44.00
2018-07-20T12:58:51.858Z,44.80
2018-07-20T13:01:21.330Z,43.90
2018-07-20T13:03:51.038Z,44.00
2018-07-20T13:06:20.327Z,42.60
2018-07-20T13:08:49.619Z,45.40
2018-07-20T13:11:18.752Z,42.00
2018-07-20T13:13:47.924Z,44.60
2018-07-20T13:16:17.052Z,44.00
2018-07-20T13:18:46.182Z,45.40
2018-07-20T13:21:15.303Z,43.60
2018-07-20T13:23:44.471Z,42.30
2018-07-20T13:26:13.727Z,40.70
2018-07-20T13:28:42.892Z,43.10
2018-07-20T13:31:12.124Z,42.40
2018-07-20T13:33:41.416Z,43.60
2018-07-20T13:36:11.534Z,44.30
2018-07-20T13:38:40.676Z,42.50
2018-07-20T13:41:10.226Z,40.50
2018-07-20T13:43:39.576Z,38.70
2018-07-20T13:46:08.907Z,42.40
2018-07-20T13:48:38.163Z,40.60
2018-07-20T13:51:08.360Z,41.80
2018-07-20T13:53:37.890Z,43.80
2018-07-20T13:56:07.140Z,42.70
2018-07-20T13:58:36.394Z,43.80
2018-07-20T14:01:05.618Z,44.90
2018-07-20T14:03:34.876Z,45.20
2018-07-20T14:06:04.228Z,44.50
2018-07-20T14:08:33.453Z,44.70
2018-07-20T14:11:02.656Z,54.70
2018-07-20T14:13:31.789Z,54.50
2018-07-20T14:16:00.953Z,55.40
2018-07-20T14:18:30.780Z,55.80
2018-07-20T14:21:00.985Z,55.40
2018-07-20T14:23:30.171Z,56.10
2018-07-20T14:25:59.356Z,54.80
2018-07-20T14:28:28.492Z,56.30
2018-07-20T14:30:57.667Z,57.60
2018-07-20T14:33:27.099Z,55.90
2018-07-20T14:35:56.788Z,55.90
2018-07-20T14:38:26.003Z,56.70
2018-07-20T14:40:55.311Z,56.10
2018-07-20T14:43:24.802Z,55.70
2018-07-20T14:45:54.996Z,56.90
2018-07-20T14:48:24.479Z,59.10
2018-07-20T14:50:53.800Z,61.50
2018-07-20T14:53:22.895Z,61.30
2018-07-20T14:55:52.103Z,62.90
2018-07-20T14:58:21.336Z,65.60
2018-07-20T15:00:50.564Z,65.70
2018-07-20T15:03:19.811Z,64.50
2018-07-20T15:05:48.933Z,65.10
2018-07-20T15:08:18.244Z,69.50
2018-07-20T15:10:47.398Z,69.60
2018-07-20T15:13:16.673Z,68.30
2018-07-20T15:15:45.896Z,68.10
2018-07-20T15:20:44.557Z,68.20
2018-07-20T15:23:20.462Z,66.80
2018-07-20T15:25:49.610Z,63.60
2018-07-20T15:28:18.901Z,64.10
2018-07-20T15:30:48.129Z,64.50
2018-07-20T15:33:17.319Z,67.10
2018-07-20T15:35:46.532Z,66.70
2018-07-20T15:40:44.754Z,68.70
2018-07-20T15:43:15.008Z,68.70
2018-07-20T15:45:51.969Z,68.00
2018-07-20T15:48:13.672Z,67.10
2018-07-20T15:50:42.879Z,67.20
2018-07-20T15:53:40.918Z,68.10
2018-07-20T15:55:41.303Z,70.90
2018-07-20T15:58:10.502Z,73.10
2018-07-20T16:00:39.802Z,72.50
2018-07-20T16:03:09.173Z,73.60
2018-07-20T16:05:38.437Z,72.70
2018-07-20T16:10:36.330Z,77.00
2018-07-20T16:13:05.564Z,77.10
2018-07-20T16:15:34.772Z,78.20
2018-07-20T16:18:03.902Z,78.80
2018-07-20T16:20:33.158Z,78.30
2018-07-20T16:23:02.471Z,78.70
2018-07-20T16:28:00.938Z,78.00
2018-07-20T16:30:30.740Z,78.80
2018-07-20T16:32:59.986Z,80.10
2018-07-20T16:37:58.560Z,80.60
2018-07-20T16:40:28.612Z,81.00
2018-07-20T16:42:57.743Z,81.10
2018-07-20T16:45:27.003Z,83.10
2018-07-20T16:47:56.212Z,80.80
2018-07-20T16:50:25.630Z,82.50
2018-07-20T16:52:54.721Z,81.20
2018-07-20T16:55:23.871Z,82.70
2018-07-20T16:57:53.303Z,82.60
2018-07-20T17:00:22.463Z,82.30
2018-07-20T17:02:51.645Z,83.80
2018-07-20T17:05:20.864Z,85.00
2018-07-20T17:07:50.021Z,86.00
2018-07-20T17:10:19.179Z,86.80
2018-07-20T17:12:48.276Z,85.80
2018-07-20T17:15:17.398Z,85.10
2018-07-20T17:17:46.545Z,85.30
2018-07-20T17:20:15.711Z,85.70
2018-07-20T17:22:44.810Z,86.00
2018-07-20T17:25:13.907Z,86.10
2018-07-20T17:27:43.177Z,86.00
2018-07-20T17:30:12.429Z,87.10
2018-07-20T17:32:41.527Z,87.80
2018-07-20T17:35:10.801Z,86.70
2018-07-20T17:37:40.424Z,87.20
2018-07-20T17:40:09.589Z,85.80
2018-07-20T17:42:38.715Z,87.60
2018-07-20T17:45:08.591Z,87.20
2018-07-20T17:47:37.639Z,88.10
2018-07-20T17:50:06.854Z,88.40
2018-07-20T17:52:35.982Z,88.50
2018-07-20T17:55:05.211Z,88.80
2018-07-20T17:57:34.456Z,89.30
2018-07-20T18:00:03.737Z,90.00
2018-07-20T18:02:32.894Z,90.00
2018-07-20T18:05:01.976Z,89.80
2018-07-20T18:07:31.051Z,89.80
2018-07-20T18:10:00.411Z,89.40
2018-07-20T18:12:29.596Z,90.40
2018-07-20T18:14:58.703Z,90.70
2018-07-20T18:17:27.914Z,90.80
2018-07-20T18:19:56.996Z,91.00
2018-07-20T18:22:26.087Z,91.20
2018-07-20T18:24:55.238Z,91.20
2018-07-20T18:27:24.480Z,91.30
2018-07-20T18:29:53.558Z,91.10
2018-07-20T18:32:23.449Z,91.70
2018-07-20T18:34:52.729Z,91.90
2018-07-20T18:37:21.851Z,92.00
2018-07-20T18:39:51.071Z,92.10
2018-07-20T18:42:20.191Z,92.30
2018-07-20T18:44:49.326Z,92.00
2018-07-20T18:47:18.999Z,92.40
2018-07-20T18:49:49.037Z,92.60
2018-07-20T18:52:18.209Z,92.60
2018-07-20T18:54:47.412Z,92.80
2018-07-20T18:57:16.547Z,92.90
2018-07-20T18:59:45.731Z,92.90
2018-07-20T19:02:14.837Z,93.20
2018-07-20T19:04:44.173Z,93.10
2018-07-20T19:07:13.367Z,93.30
2018-07-20T19:09:42.549Z,93.50
2018-07-20T19:12:11.793Z,93.50
2018-07-20T19:14:40.937Z,94.00
2018-07-20T19:17:10.292Z,93.60
2018-07-20T19:19:39.389Z,93.60
2018-07-20T19:22:08.697Z,93.20
2018-07-20T19:24:37.815Z,93.20
2018-07-20T19:27:07.442Z,93.40
2018-07-20T19:29:36.660Z,93.00
2018-07-20T19:32:05.832Z,93.00
2018-07-20T19:34:34.953Z,92.80
2018-07-20T19:37:04.128Z,92.80
2018-07-20T19:39:33.256Z,93.10
2018-07-20T19:42:02.459Z,93.40
2018-07-20T19:44:31.564Z,93.10
2018-07-20T19:47:00.670Z,92.80
2018-07-20T19:49:29.804Z,92.80
2018-07-20T19:51:58.944Z,93.00
2018-07-20T19:54:28.919Z,93.10
2018-07-20T19:56:58.161Z,93.30
2018-07-20T19:59:27.261Z,93.50
2018-07-20T20:01:56.589Z,93.60
2018-07-20T20:04:25.925Z,93.80
2018-07-20T20:06:55.040Z,94.00
2018-07-20T20:09:24.290Z,94.10
2018-07-20T20:11:53.658Z,94.40
2018-07-20T20:16:51.848Z,95.00
2018-07-20T20:19:21.007Z,95.00
2018-07-20T20:24:19.143Z,95.00
2018-07-20T20:26:48.304Z,95.20
2018-07-20T20:29:18.285Z,95.20
2018-07-20T20:31:47.394Z,95.20
2018-07-20T20:34:16.744Z,95.30
2018-07-20T20:36:45.997Z,95.30
2018-07-20T20:39:15.175Z,95.20
2018-07-20T20:41:44.589Z,95.10
2018-07-20T20:44:13.756Z,94.80
2018-07-20T20:46:42.915Z,94.70
2018-07-20T20:49:12.151Z,94.70
2018-07-20T20:51:41.285Z,94.60
2018-07-20T20:54:10.607Z,94.50
2018-07-20T20:56:39.752Z,94.50
2018-07-20T21:01:37.832Z,94.70
2018-07-20T21:06:36.011Z,94.80
2018-07-20T21:09:07.794Z,94.80
2018-07-20T21:11:37.110Z,95.00
2018-07-20T21:14:06.317Z,95.00
2018-07-20T21:16:35.927Z,95.00
2018-07-20T21:19:05.369Z,95.30
2018-07-20T21:21:34.566Z,95.40
2018-07-20T21:24:03.788Z,95.50
2018-07-20T21:26:33.118Z,95.70
2018-07-20T21:29:02.842Z,96.10
2018-07-20T21:31:31.995Z,95.70
2018-07-20T21:34:01.935Z,95.60
2018-07-20T21:36:31.180Z,95.60
2018-07-20T21:39:00.518Z,95.50
2018-07-20T21:41:30.512Z,95.40
2018-07-20T21:43:59.721Z,95.10
2018-07-20T21:46:28.939Z,95.20
2018-07-20T21:48:58.212Z,95.30
2018-07-20T21:51:27.423Z,95.30
2018-07-20T21:53:56.627Z,95.40
2018-07-20T21:58:54.618Z,95.00
2018-07-20T22:01:23.829Z,95.00
2018-07-20T22:03:53.033Z,95.20
2018-07-20T22:06:22.237Z,95.30
2018-07-20T22:08:51.428Z,95.40
2018-07-20T22:11:21.057Z,95.40
2018-07-20T22:13:50.225Z,95.50
2018-07-20T22:16:19.461Z,95.40
2018-07-20T22:18:48.705Z,95.30
2018-07-20T22:21:18.030Z,95.20
2018-07-20T22:26:16.124Z,95.10
2018-07-20T22:28:45.185Z,95.00
2018-07-20T22:31:14.430Z,94.80
2018-07-20T22:33:43.664Z,94.50
2018-07-20T22:36:12.825Z,94.30
2018-07-20T22:38:42.222Z,94.40
2018-07-20T22:41:11.619Z,94.40
2018-07-20T22:43:40.936Z,94.40
2018-07-20T22:46:10.272Z,94.00
2018-07-20T22:48:39.360Z,93.90
2018-07-20T22:51:08.668Z,94.00
2018-07-20T22:53:37.859Z,94.50
2018-07-20T22:56:07.052Z,94.00
2018-07-20T22:58:36.552Z,94.00
2018-07-20T23:01:05.719Z,94.10
2018-07-20T23:03:34.916Z,94.00
2018-07-20T23:06:04.209Z,94.00
2018-07-20T23:08:33.471Z,93.90
2018-07-20T23:11:02.884Z,94.00
2018-07-20T23:13:32.311Z,94.30
2018-07-20T23:16:01.504Z,94.20
2018-07-20T23:18:30.779Z,94.10
2018-07-20T23:21:00.074Z,94.40
2018-07-20T23:23:29.149Z,94.60
2018-07-20T23:25:58.275Z,94.70
2018-07-20T23:28:28.065Z,94.70
2018-07-20T23:30:57.168Z,94.60
2018-07-20T23:33:26.412Z,94.60
2018-07-20T23:35:55.564Z,94.60
2018-07-20T23:38:24.802Z,94.60
2018-07-20T23:40:54.013Z,95.10
2018-07-20T23:43:23.228Z,95.10
2018-07-20T23:45:52.534Z,95.20
2018-07-20T23:48:21.712Z,95.40
2018-07-20T23:50:50.945Z,95.80
2018-07-20T23:53:20.322Z,96.00
2018-07-20T23:58:18.606Z,96.60
